createdAt,value
2018-04-30T00:01:52.874Z,16.65
2018-04-30T00:04:20.358Z,16.64
2018-04-30T00:06:47.824Z,16.63
2018-04-30T00:09:15.274Z,16.64
2018-04-30T00:11:42.784Z,16.62
2018-04-30T00:14:10.248Z,16.59
2018-04-30T00:16:37.683Z,16.58
2018-04-30T00:19:05.140Z,16.58
2018-04-30T00:21:32.600Z,16.57
2018-04-30T00:24:00.036Z,16.55
2018-04-30T00:26:27.508Z,16.56
2018-04-30T00:28:55.002Z,16.54
2018-04-30T00:31:22.454Z,16.52
2018-04-30T00:33:49.966Z,16.51
2018-04-30T00:36:17.468Z,16.48
2018-04-30T00:38:44.927Z,16.48
2018-04-30T00:41:12.409Z,16.47
2018-04-30T00:43:39.888Z,16.44
2018-04-30T00:46:07.358Z,16.44
2018-04-30T00:48:34.833Z,16.46
2018-04-30T00:51:02.292Z,16.44
2018-04-30T00:53:29.770Z,16.43
2018-04-30T00:55:57.260Z,16.41
2018-04-30T00:58:24.748Z,16.39
2018-04-30T01:00:52.203Z,16.40
2018-04-30T01:03:19.721Z,16.41
2018-04-30T01:05:47.174Z,16.41
2018-04-30T01:08:14.648Z,16.41
2018-04-30T01:10:42.100Z,16.38
2018-04-30T01:13:09.544Z,16.35
2018-04-30T01:15:37.062Z,16.33
2018-04-30T01:18:04.539Z,16.33
2018-04-30T01:20:32.025Z,16.31
2018-04-30T01:22:59.532Z,16.28
2018-04-30T01:25:26.984Z,16.25
2018-04-30T01:27:54.460Z,16.24
2018-04-30T01:30:21.938Z,16.21
2018-04-30T01:32:49.391Z,16.17
2018-04-30T01:35:16.875Z,16.15
2018-04-30T01:37:44.374Z,16.13
2018-04-30T01:40:11.824Z,16.10
2018-04-30T01:42:39.304Z,16.09
2018-04-30T01:45:06.784Z,16.06
2018-04-30T01:47:34.243Z,16.07
2018-04-30T01:50:01.732Z,16.03
2018-04-30T01:52:29.209Z,16.02
2018-04-30T01:54:56.697Z,15.99
2018-04-30T01:57:24.203Z,15.96
2018-04-30T01:59:51.701Z,15.93
2018-04-30T02:02:19.188Z,15.93
2018-04-30T02:04:46.692Z,15.89
2018-04-30T02:07:14.177Z,15.88
2018-04-30T02:09:41.638Z,15.83
2018-04-30T02:12:09.133Z,15.79
2018-04-30T02:14:36.637Z,15.75
2018-04-30T02:17:04.112Z,15.74
2018-04-30T02:19:31.569Z,15.68
2018-04-30T02:21:59.055Z,15.68
2018-04-30T02:24:26.573Z,15.64
2018-04-30T02:26:54.027Z,15.63
2018-04-30T02:29:21.509Z,15.59
2018-04-30T02:31:49.117Z,15.62
2018-04-30T02:34:16.643Z,15.60
2018-04-30T02:36:44.136Z,15.53
2018-04-30T02:39:11.652Z,15.50
2018-04-30T02:41:39.270Z,15.50
2018-04-30T02:44:06.808Z,15.48
2018-04-30T02:46:34.291Z,15.45
2018-04-30T02:49:01.753Z,15.40
2018-04-30T02:51:29.234Z,15.37
2018-04-30T02:53:56.709Z,15.38
2018-04-30T02:56:24.221Z,15.31
2018-04-30T02:58:51.749Z,15.29
2018-04-30T03:01:19.232Z,15.24
2018-04-30T03:03:46.709Z,15.23
2018-04-30T03:06:14.180Z,15.21
2018-04-30T03:08:41.628Z,15.14
2018-04-30T03:11:09.087Z,15.09
2018-04-30T03:13:36.596Z,15.10
2018-04-30T03:16:04.090Z,15.08
2018-04-30T03:18:31.577Z,15.00
2018-04-30T03:20:59.114Z,14.98
2018-04-30T03:23:26.578Z,14.94
2018-04-30T03:25:54.026Z,14.89
2018-04-30T03:28:21.505Z,14.86
2018-04-30T03:30:48.962Z,14.84
2018-04-30T03:33:16.450Z,14.80
2018-04-30T03:35:43.949Z,14.79
2018-04-30T03:38:11.479Z,14.75
2018-04-30T03:40:38.937Z,14.74
2018-04-30T03:43:06.489Z,14.70
2018-04-30T03:45:34.001Z,14.67
2018-04-30T03:48:01.482Z,14.72
2018-04-30T03:50:29.000Z,14.74
2018-04-30T03:52:56.488Z,14.72
2018-04-30T03:55:23.977Z,14.70
2018-04-30T03:57:51.464Z,14.68
2018-04-30T04:00:30.847Z,14.69
2018-04-30T04:03:10.335Z,14.70
2018-04-30T04:05:49.551Z,14.69
2018-04-30T04:08:17.065Z,14.67
2018-04-30T04:10:44.541Z,14.67
2018-04-30T04:13:11.995Z,14.66
2018-04-30T04:15:39.516Z,14.62
2018-04-30T04:18:06.969Z,14.64
2018-04-30T04:20:34.457Z,14.68
2018-04-30T04:23:01.973Z,14.66
2018-04-30T04:25:29.533Z,14.68
2018-04-30T04:27:57.037Z,14.79
2018-04-30T04:30:24.629Z,14.87
2018-04-30T04:32:52.135Z,14.88
2018-04-30T04:35:19.598Z,14.98
2018-04-30T04:37:47.098Z,15.23
2018-04-30T04:40:14.607Z,15.52
2018-04-30T04:42:42.078Z,15.80
2018-04-30T04:45:09.559Z,16.09
2018-04-30T04:47:37.142Z,16.69
2018-04-30T04:50:04.646Z,17.15
2018-04-30T04:52:32.124Z,17.36
2018-04-30T04:54:59.687Z,16.93
2018-04-30T04:57:27.123Z,16.48
2018-04-30T04:59:54.582Z,16.04
2018-04-30T05:02:22.814Z,15.93
2018-04-30T05:04:50.279Z,16.04
2018-04-30T05:07:17.767Z,16.13
2018-04-30T05:09:45.285Z,16.07
2018-04-30T05:12:12.774Z,15.88
2018-04-30T05:14:40.234Z,15.94
2018-04-30T05:17:07.676Z,15.96
2018-04-30T05:19:35.191Z,15.83
2018-04-30T05:22:02.686Z,15.80
2018-04-30T05:24:30.160Z,15.89
2018-04-30T05:26:57.607Z,15.95
2018-04-30T05:29:25.085Z,16.08
2018-04-30T05:31:52.678Z,16.10
2018-04-30T05:34:20.158Z,16.10
2018-04-30T05:36:47.603Z,16.14
2018-04-30T05:39:15.128Z,16.30
2018-04-30T05:41:42.600Z,16.40
2018-04-30T05:44:10.047Z,16.52
2018-04-30T05:46:37.528Z,16.72
2018-04-30T05:49:05.042Z,16.55
2018-04-30T05:51:32.631Z,16.58
2018-04-30T05:54:00.113Z,16.68
2018-04-30T05:56:27.602Z,16.56
2018-04-30T05:58:55.153Z,16.40
2018-04-30T06:01:22.629Z,16.44
2018-04-30T06:03:50.152Z,16.49
2018-04-30T06:06:17.636Z,16.60
2018-04-30T06:08:45.177Z,16.81
2018-04-30T06:11:12.658Z,17.05
2018-04-30T06:13:40.156Z,17.19
2018-04-30T06:16:07.598Z,17.29
2018-04-30T06:18:35.077Z,17.49
2018-04-30T06:21:02.558Z,17.55
2018-04-30T06:23:30.014Z,17.70
2018-04-30T06:25:57.493Z,17.85
2018-04-30T06:28:25.001Z,18.01
2018-04-30T06:30:52.489Z,18.03
2018-04-30T06:33:20.076Z,18.10
2018-04-30T06:35:47.636Z,18.16
2018-04-30T06:38:15.051Z,18.27
2018-04-30T06:40:42.522Z,18.39
2018-04-30T06:43:10.048Z,18.48
2018-04-30T06:45:37.614Z,18.67
2018-04-30T06:48:05.083Z,18.81
2018-04-30T06:50:32.573Z,18.89
2018-04-30T06:53:00.032Z,18.82
2018-04-30T06:55:27.527Z,18.85
2018-04-30T06:57:55.026Z,18.90
2018-04-30T07:00:22.504Z,19.01
2018-04-30T07:02:49.960Z,19.17
2018-04-30T07:05:17.507Z,19.36
2018-04-30T07:07:44.958Z,19.54
2018-04-30T07:10:12.405Z,19.67
2018-04-30T07:12:39.981Z,19.66
2018-04-30T07:15:07.432Z,19.59
2018-04-30T07:17:34.936Z,19.63
2018-04-30T07:20:02.615Z,19.57
2018-04-30T07:22:30.010Z,19.62
2018-04-30T07:24:57.467Z,19.83
2018-04-30T07:27:24.941Z,20.09
2018-04-30T07:29:52.514Z,20.17
2018-04-30T07:32:20.000Z,20.36
2018-04-30T07:34:47.713Z,20.52
2018-04-30T07:37:15.225Z,20.64
2018-04-30T07:39:42.741Z,20.68
2018-04-30T07:42:10.254Z,20.59
2018-04-30T07:44:37.710Z,20.59
2018-04-30T07:47:05.194Z,20.62
2018-04-30T07:49:32.707Z,20.66
2018-04-30T07:52:00.169Z,20.70
2018-04-30T07:54:27.652Z,20.74
2018-04-30T07:56:55.178Z,20.85
2018-04-30T07:59:22.669Z,21.02
2018-04-30T08:01:50.157Z,21.28
2018-04-30T08:04:17.679Z,21.52
2018-04-30T08:06:45.218Z,21.78
2018-04-30T08:09:12.961Z,22.05
2018-04-30T08:11:40.472Z,22.09
2018-04-30T08:14:07.980Z,22.07
2018-04-30T08:16:35.475Z,22.14
2018-04-30T08:19:02.989Z,22.15
2018-04-30T08:21:30.563Z,22.19
2018-04-30T08:23:57.951Z,22.30
2018-04-30T08:26:25.408Z,22.43
2018-04-30T08:28:52.897Z,22.46
2018-04-30T08:31:20.442Z,22.56
2018-04-30T08:33:47.903Z,22.63
2018-04-30T08:36:15.362Z,22.59
2018-04-30T08:38:42.937Z,22.59
2018-04-30T08:41:10.396Z,22.75
2018-04-30T08:43:37.893Z,22.89
2018-04-30T08:46:05.470Z,23.10
2018-04-30T08:48:32.944Z,23.21
2018-04-30T08:51:00.415Z,23.14
2018-04-30T08:53:27.875Z,23.32
2018-04-30T08:55:55.366Z,23.47
2018-04-30T08:58:22.924Z,23.56
2018-04-30T09:00:50.412Z,23.64
2018-04-30T09:03:17.912Z,23.79
2018-04-30T09:05:45.437Z,23.90
2018-04-30T09:08:12.989Z,24.01
2018-04-30T09:10:40.476Z,24.08
2018-04-30T09:13:07.988Z,24.12
2018-04-30T09:15:35.461Z,24.15
2018-04-30T09:18:03.033Z,24.22
2018-04-30T09:20:30.538Z,24.31
2018-04-30T09:22:58.001Z,24.41
2018-04-30T09:25:25.490Z,24.42
2018-04-30T09:27:52.965Z,24.59
2018-04-30T09:30:20.427Z,24.66
2018-04-30T09:32:48.005Z,24.76
2018-04-30T09:35:15.487Z,24.80
2018-04-30T09:37:42.968Z,24.80
2018-04-30T09:40:10.461Z,24.81
2018-04-30T09:42:37.947Z,24.82
2018-04-30T09:45:05.432Z,24.84
2018-04-30T09:47:32.896Z,24.80
2018-04-30T09:50:00.423Z,24.79
2018-04-30T09:52:27.900Z,24.84
2018-04-30T09:54:55.372Z,24.94
2018-04-30T09:57:22.822Z,24.76
2018-04-30T09:59:50.276Z,24.72
2018-04-30T10:02:17.788Z,24.82
2018-04-30T10:04:45.284Z,24.85
2018-04-30T10:07:12.788Z,24.51
2018-04-30T10:09:40.355Z,24.38
2018-04-30T10:12:07.844Z,24.27
2018-04-30T10:14:35.334Z,24.08
2018-04-30T10:17:02.872Z,23.98
2018-04-30T10:19:30.353Z,24.15
2018-04-30T10:21:57.839Z,24.27
2018-04-30T10:24:25.330Z,24.13
2018-04-30T10:26:52.826Z,23.89
2018-04-30T10:29:20.309Z,23.45
2018-04-30T10:31:47.804Z,22.87
2018-04-30T10:34:15.250Z,22.41
2018-04-30T10:36:42.747Z,22.13
2018-04-30T10:39:10.239Z,22.15
2018-04-30T10:41:37.699Z,22.23
2018-04-30T10:44:05.211Z,22.00
2018-04-30T10:46:32.701Z,21.75
2018-04-30T10:49:00.177Z,21.66
2018-04-30T10:51:27.639Z,21.78
2018-04-30T10:53:55.091Z,22.02
2018-04-30T10:56:22.548Z,21.83
2018-04-30T10:58:49.988Z,21.58
2018-04-30T11:01:17.451Z,21.44
2018-04-30T11:03:45.073Z,21.70
2018-04-30T11:06:12.546Z,21.79
2018-04-30T11:08:40.003Z,21.44
2018-04-30T11:11:07.536Z,21.13
2018-04-30T11:13:35.028Z,20.99
2018-04-30T11:16:02.520Z,20.93
2018-04-30T11:18:29.997Z,21.03
2018-04-30T11:20:57.477Z,21.08
2018-04-30T11:23:24.964Z,21.33
2018-04-30T11:25:52.483Z,21.56
2018-04-30T11:28:19.989Z,21.69
2018-04-30T11:30:47.465Z,21.80
2018-04-30T11:33:14.993Z,21.99
2018-04-30T11:35:42.509Z,21.92
2018-04-30T11:38:10.088Z,21.82
2018-04-30T11:40:37.603Z,21.90
2018-04-30T11:43:05.122Z,21.88
2018-04-30T11:45:32.651Z,22.07
2018-04-30T11:48:00.157Z,22.21
2018-04-30T11:50:27.685Z,21.96
2018-04-30T11:52:55.171Z,21.65
2018-04-30T11:55:22.665Z,21.70
2018-04-30T11:57:50.139Z,21.87
2018-04-30T12:00:17.604Z,22.06
2018-04-30T12:02:45.128Z,21.75
2018-04-30T12:05:12.659Z,21.72
2018-04-30T12:07:40.119Z,21.52
2018-04-30T12:10:07.599Z,21.23
2018-04-30T12:12:35.384Z,21.16
2018-04-30T12:15:02.906Z,21.13
2018-04-30T12:17:30.469Z,20.78
2018-04-30T12:19:57.928Z,20.53
2018-04-30T12:22:25.516Z,20.34
2018-04-30T12:24:53.046Z,20.25
2018-04-30T12:27:20.504Z,20.22
2018-04-30T12:29:48.052Z,20.21
2018-04-30T12:32:15.476Z,20.17
2018-04-30T12:34:42.972Z,20.37
2018-04-30T12:37:10.564Z,20.52
2018-04-30T12:39:38.221Z,20.96
2018-04-30T12:42:05.720Z,21.00
2018-04-30T12:44:33.188Z,21.37
2018-04-30T12:47:00.685Z,21.69
2018-04-30T12:49:28.253Z,21.64
2018-04-30T12:51:55.676Z,21.54
2018-04-30T12:54:23.173Z,21.37
2018-04-30T12:56:50.620Z,21.32
2018-04-30T12:59:18.087Z,21.22
2018-04-30T13:01:45.611Z,21.27
2018-04-30T13:04:13.090Z,21.69
2018-04-30T13:06:40.556Z,21.89
2018-04-30T13:09:08.152Z,21.78
2018-04-30T13:11:35.603Z,21.76
2018-04-30T13:14:03.091Z,21.62
2018-04-30T13:16:30.552Z,21.62
2018-04-30T13:18:58.035Z,21.51
2018-04-30T13:21:25.571Z,21.39
2018-04-30T13:23:53.026Z,21.39
2018-04-30T13:26:20.497Z,21.34
2018-04-30T13:28:47.971Z,21.36
2018-04-30T13:31:15.416Z,21.22
2018-04-30T13:33:42.868Z,21.20
2018-04-30T13:36:10.388Z,21.20
2018-04-30T13:38:37.837Z,21.29
2018-04-30T13:41:05.271Z,21.62
2018-04-30T13:43:32.801Z,21.93
2018-04-30T13:46:00.243Z,22.04
2018-04-30T13:48:27.719Z,22.15
2018-04-30T13:50:55.212Z,21.99
2018-04-30T13:53:22.696Z,21.72
2018-04-30T13:55:50.192Z,21.52
2018-04-30T13:58:17.655Z,21.78
2018-04-30T14:00:45.212Z,22.16
2018-04-30T14:03:12.728Z,22.44
2018-04-30T14:05:40.191Z,22.47
2018-04-30T14:08:07.633Z,22.63
2018-04-30T14:10:35.137Z,22.84
2018-04-30T14:13:02.614Z,22.87
2018-04-30T14:15:30.060Z,22.59
2018-04-30T14:17:57.568Z,22.30
2018-04-30T14:20:25.053Z,22.20
2018-04-30T14:22:52.533Z,22.40
2018-04-30T14:25:20.007Z,22.36
2018-04-30T14:27:47.493Z,22.08
2018-04-30T14:30:14.934Z,22.15
2018-04-30T14:32:42.402Z,22.06
2018-04-30T14:35:09.844Z,21.98
2018-04-30T14:37:37.283Z,21.95
2018-04-30T14:40:04.775Z,21.91
2018-04-30T14:42:32.216Z,22.06
2018-04-30T14:44:59.706Z,22.12
2018-04-30T14:47:27.214Z,21.81
2018-04-30T14:49:54.671Z,21.47
2018-04-30T14:52:22.162Z,21.42
2018-04-30T14:54:49.637Z,21.54
2018-04-30T14:57:17.119Z,21.59
2018-04-30T14:59:44.674Z,21.38
2018-04-30T15:02:12.177Z,21.16
2018-04-30T15:04:39.761Z,21.22
2018-04-30T15:07:07.240Z,21.23
2018-04-30T15:09:34.866Z,21.31
2018-04-30T15:12:02.357Z,21.18
2018-04-30T15:14:29.833Z,21.08
2018-04-30T15:16:57.348Z,22.09
2018-04-30T15:19:24.840Z,23.83
2018-04-30T15:21:52.338Z,24.86
2018-04-30T15:24:19.823Z,25.94
2018-04-30T15:26:47.282Z,26.55
2018-04-30T15:29:14.727Z,26.46
2018-04-30T15:31:42.176Z,26.46
2018-04-30T15:34:09.607Z,26.88
2018-04-30T15:36:37.099Z,27.47
2018-04-30T15:39:04.581Z,27.86
2018-04-30T15:41:32.062Z,26.81
2018-04-30T15:43:59.531Z,25.82
2018-04-30T15:46:26.976Z,25.04
2018-04-30T15:48:54.454Z,25.00
2018-04-30T15:51:21.961Z,25.22
2018-04-30T15:53:49.406Z,24.71
2018-04-30T15:56:16.889Z,24.46
2018-04-30T15:58:44.436Z,22.85
2018-04-30T16:01:11.971Z,22.07
2018-04-30T16:03:39.467Z,21.20
2018-04-30T16:06:06.942Z,22.36
2018-04-30T16:08:34.441Z,22.67
2018-04-30T16:11:01.925Z,21.74
2018-04-30T16:13:29.450Z,22.01
2018-04-30T16:15:56.908Z,23.18
2018-04-30T16:18:24.372Z,23.09
2018-04-30T16:20:51.888Z,22.23
2018-04-30T16:23:19.368Z,21.75
2018-04-30T16:25:46.814Z,21.24
2018-04-30T16:28:14.302Z,20.77
2018-04-30T16:30:41.754Z,20.53
2018-04-30T16:33:09.229Z,20.39
2018-04-30T16:35:36.759Z,20.37
2018-04-30T16:38:04.220Z,20.48
2018-04-30T16:40:31.667Z,20.57
2018-04-30T16:42:59.114Z,20.64
2018-04-30T16:45:26.610Z,20.54
2018-04-30T16:47:54.055Z,20.29
2018-04-30T16:50:21.563Z,19.98
2018-04-30T16:52:49.064Z,19.87
2018-04-30T16:55:16.537Z,19.83
2018-04-30T16:57:43.989Z,19.82
2018-04-30T17:00:11.557Z,19.76
2018-04-30T17:02:39.001Z,19.77
2018-04-30T17:05:06.477Z,19.78
2018-04-30T17:07:33.999Z,19.77
2018-04-30T17:10:01.443Z,19.69
2018-04-30T17:12:28.890Z,19.63
2018-04-30T17:14:56.372Z,19.53
2018-04-30T17:17:23.831Z,19.51
2018-04-30T17:19:51.271Z,19.45
2018-04-30T17:22:18.767Z,19.36
2018-04-30T17:24:46.264Z,19.28
2018-04-30T17:27:13.738Z,19.24
2018-04-30T17:29:41.215Z,19.20
2018-04-30T17:32:08.667Z,19.16
2018-04-30T17:34:36.110Z,19.11
2018-04-30T17:37:03.578Z,19.07
2018-04-30T17:39:31.019Z,19.06
2018-04-30T17:41:58.543Z,19.02
2018-04-30T17:44:26.033Z,18.97
2018-04-30T17:46:53.513Z,18.94
2018-04-30T17:49:20.992Z,18.87
2018-04-30T17:51:48.452Z,18.87
2018-04-30T17:54:15.920Z,18.85
2018-04-30T17:56:43.407Z,18.83
2018-04-30T17:59:10.885Z,18.81
2018-04-30T18:01:38.381Z,18.79
2018-04-30T18:04:05.967Z,18.73
2018-04-30T18:06:33.519Z,18.72
2018-04-30T18:09:01.027Z,18.71
2018-04-30T18:11:28.480Z,18.65
2018-04-30T18:16:29.857Z,18.51
2018-04-30T18:18:57.345Z,18.48
2018-04-30T18:21:24.845Z,18.44
2018-04-30T18:23:52.326Z,18.39
2018-04-30T18:26:19.772Z,18.30
2018-04-30T18:28:47.244Z,18.23
2018-04-30T18:31:14.724Z,18.15
2018-04-30T18:33:42.204Z,18.09
2018-04-30T18:36:09.665Z,18.02
2018-04-30T18:38:37.174Z,17.99
2018-04-30T18:41:04.643Z,17.93
2018-04-30T18:43:32.121Z,17.88
2018-04-30T18:45:59.636Z,17.85
2018-04-30T18:48:27.116Z,17.73
2018-04-30T18:50:54.571Z,17.66
2018-04-30T18:53:22.089Z,17.65
2018-04-30T18:55:49.556Z,17.60
2018-04-30T18:58:17.045Z,17.53
2018-04-30T19:00:44.556Z,17.47
2018-04-30T19:03:12.013Z,17.42
2018-04-30T19:05:39.459Z,17.42
2018-04-30T19:08:06.958Z,17.46
2018-04-30T19:10:34.448Z,17.52
2018-04-30T19:13:01.947Z,17.50
2018-04-30T19:15:29.465Z,17.44
2018-04-30T19:17:56.962Z,17.33
2018-04-30T19:20:24.449Z,17.28
2018-04-30T19:22:51.981Z,17.23
2018-04-30T19:25:19.469Z,17.25
2018-04-30T19:27:46.933Z,17.18
2018-04-30T19:30:14.407Z,17.19
2018-04-30T19:32:41.853Z,17.23
2018-04-30T19:35:09.366Z,17.21
2018-04-30T19:37:36.849Z,17.12
2018-04-30T19:40:04.375Z,17.00
2018-04-30T19:42:31.813Z,16.90
2018-04-30T19:44:59.305Z,16.92
2018-04-30T19:47:26.762Z,16.92
2018-04-30T19:49:54.260Z,16.85
2018-04-30T19:52:21.823Z,16.77
2018-04-30T19:54:49.224Z,16.70
2018-04-30T19:57:16.677Z,16.60
2018-04-30T19:59:44.170Z,16.49
2018-04-30T20:02:11.702Z,16.49
2018-04-30T20:04:39.190Z,16.50
2018-04-30T20:07:06.643Z,16.46
2018-04-30T20:09:34.112Z,16.46
2018-04-30T20:12:01.631Z,16.53
2018-04-30T20:14:29.191Z,16.55
2018-04-30T20:16:56.736Z,16.51
2018-04-30T20:19:24.226Z,16.48
2018-04-30T20:21:51.679Z,16.41
2018-04-30T20:24:19.161Z,16.39
2018-04-30T20:26:46.665Z,16.34
2018-04-30T20:29:15.020Z,16.31
2018-04-30T20:31:42.504Z,16.22
2018-04-30T20:34:09.996Z,16.18
2018-04-30T20:36:37.457Z,16.11
2018-04-30T20:39:05.754Z,16.04
2018-04-30T20:41:33.200Z,16.05
2018-04-30T20:44:00.691Z,16.05
2018-04-30T20:46:28.208Z,15.96
2018-04-30T20:48:55.672Z,15.86
2018-04-30T20:51:23.189Z,15.78
2018-04-30T20:53:50.654Z,15.71
2018-04-30T20:56:18.137Z,15.59
2018-04-30T20:58:45.632Z,15.54
2018-04-30T21:01:13.131Z,15.54
2018-04-30T21:03:40.620Z,15.50
2018-04-30T21:06:08.104Z,15.48
2018-04-30T21:08:47.355Z,15.51
2018-04-30T21:11:14.857Z,15.56
2018-04-30T21:13:42.334Z,15.52
2018-04-30T21:16:09.783Z,15.41
2018-04-30T21:18:37.277Z,15.35
2018-04-30T21:21:04.790Z,15.35
2018-04-30T21:23:32.283Z,15.34
2018-04-30T21:25:59.827Z,15.42
2018-04-30T21:28:27.292Z,15.49
2018-04-30T21:30:54.791Z,15.49
2018-04-30T21:33:22.279Z,15.50
2018-04-30T21:35:49.794Z,15.45
2018-04-30T21:38:17.245Z,15.44
2018-04-30T21:40:44.690Z,15.39
2018-04-30T21:43:12.166Z,15.32
2018-04-30T21:45:39.691Z,15.26
2018-04-30T21:48:07.241Z,15.23
2018-04-30T21:50:34.743Z,15.21
2018-04-30T21:53:02.214Z,15.14
2018-04-30T21:55:29.669Z,15.08
2018-04-30T21:57:57.172Z,15.09
2018-04-30T22:00:28.697Z,15.09
2018-04-30T22:02:56.125Z,15.06
2018-04-30T22:05:23.600Z,15.01
2018-04-30T22:07:51.053Z,14.94
2018-04-30T22:10:18.589Z,14.97
2018-04-30T22:12:46.064Z,14.93
2018-04-30T22:15:13.583Z,14.97
2018-04-30T22:17:41.032Z,14.90
2018-04-30T22:20:08.543Z,14.92
2018-04-30T22:22:36.005Z,14.97
2018-04-30T22:25:03.481Z,14.97
2018-04-30T22:27:30.988Z,14.90
2018-04-30T22:29:58.472Z,14.83
2018-04-30T22:32:26.036Z,14.87
2018-04-30T22:34:53.486Z,14.86
2018-04-30T22:37:20.972Z,14.89
2018-04-30T22:39:48.432Z,14.92
2018-04-30T22:42:15.887Z,14.86
2018-04-30T22:44:43.393Z,14.83
2018-04-30T22:47:10.840Z,14.83
2018-04-30T22:49:38.309Z,14.80
2018-04-30T22:52:05.839Z,14.80
2018-04-30T22:54:33.316Z,14.77
2018-04-30T22:57:00.759Z,14.69
2018-04-30T22:59:28.227Z,14.61
2018-04-30T23:01:55.678Z,14.52
2018-04-30T23:04:23.144Z,14.53
2018-04-30T23:06:50.627Z,14.58
2018-04-30T23:09:18.113Z,14.51
2018-04-30T23:11:45.589Z,14.33
2018-04-30T23:14:13.115Z,14.23
2018-04-30T23:16:40.596Z,14.23
2018-04-30T23:19:08.111Z,14.31
2018-04-30T23:21:35.597Z,14.33
2018-04-30T23:24:03.055Z,14.22
2018-04-30T23:26:30.546Z,14.09
2018-04-30T23:28:58.026Z,13.96
2018-04-30T23:31:25.518Z,13.90
2018-04-30T23:33:53.019Z,13.97
2018-04-30T23:36:20.497Z,14.02
2018-04-30T23:38:47.985Z,13.98
2018-04-30T23:41:15.531Z,13.98
2018-04-30T23:43:43.018Z,13.88
2018-04-30T23:46:10.469Z,13.87
2018-04-30T23:48:37.939Z,13.86
2018-04-30T23:51:05.415Z,13.93
2018-04-30T23:53:32.894Z,14.03
2018-04-30T23:56:00.364Z,13.94
2018-04-30T23:58:27.925Z,13.81
